createdAt,value
2023-03-30T00:00:23.421Z,6.80
2023-03-30T00:02:53.832Z,5.37
2023-03-30T00:05:23.900Z,5.00
2023-03-30T00:07:53.569Z,9.00
2023-03-30T00:10:22.208Z,4.27
2023-03-30T00:12:52.744Z,5.07
2023-03-30T00:15:21.976Z,6.40
2023-03-30T00:17:50.368Z,4.83
2023-03-30T00:20:19.445Z,3.90
2023-03-30T00:22:48.173Z,5.13
2023-03-30T00:25:18.431Z,7.40
2023-03-30T00:27:47.199Z,6.27
2023-03-30T00:30:16.264Z,6.13
2023-03-30T00:32:44.635Z,5.27
2023-03-30T00:35:13.351Z,4.43
2023-03-30T00:37:45.643Z,8.07
2023-03-30T00:40:16.759Z,5.17
2023-03-30T00:42:47.086Z,6.03
2023-03-30T00:45:23.028Z,4.93
2023-03-30T00:47:53.641Z,8.40
2023-03-30T00:50:23.674Z,5.50
2023-03-30T00:52:53.222Z,3.70
2023-03-30T00:55:22.508Z,7.27
2023-03-30T00:57:53.390Z,5.23
2023-03-30T01:00:23.983Z,4.77
2023-03-30T01:02:55.941Z,4.87
2023-03-30T01:05:25.164Z,6.13
2023-03-30T01:07:53.327Z,9.77
2023-03-30T01:10:22.105Z,10.70
2023-03-30T01:12:51.876Z,7.27
2023-03-30T01:15:20.512Z,5.33
2023-03-30T01:17:55.836Z,4.73
2023-03-30T01:20:35.325Z,7.80
2023-03-30T01:23:13.039Z,7.03
2023-03-30T01:25:56.328Z,5.37
2023-03-30T01:28:32.945Z,5.43
2023-03-30T01:31:27.954Z,7.47
2023-03-30T01:34:11.502Z,9.30
2023-03-30T01:37:04.625Z,4.80
2023-03-30T01:39:41.646Z,6.03
2023-03-30T01:42:16.108Z,8.00
2023-03-30T01:44:46.181Z,6.10
2023-03-30T01:47:17.964Z,7.23
2023-03-30T01:49:48.876Z,7.07
2023-03-30T01:52:19.686Z,6.50
2023-03-30T01:54:50.137Z,7.30
2023-03-30T01:57:20.762Z,7.50
2023-03-30T01:59:53.237Z,7.97
2023-03-30T02:02:23.885Z,8.27
2023-03-30T02:04:54.589Z,8.50
2023-03-30T02:07:24.617Z,6.13
2023-03-30T02:09:55.460Z,6.67
2023-03-30T02:12:24.125Z,5.87
2023-03-30T02:14:53.445Z,6.83
2023-03-30T02:17:24.524Z,6.87
2023-03-30T02:19:54.599Z,7.37
2023-03-30T02:22:23.728Z,5.23
2023-03-30T02:24:54.876Z,8.13
2023-03-30T02:27:25.166Z,10.00
2023-03-30T02:29:54.550Z,5.43
2023-03-30T02:32:23.853Z,4.60
2023-03-30T02:34:58.900Z,6.53
2023-03-30T02:37:35.029Z,7.67
2023-03-30T02:40:13.430Z,5.90
2023-03-30T02:42:51.880Z,5.53
2023-03-30T02:45:24.918Z,7.67
2023-03-30T02:48:00.037Z,6.97
2023-03-30T02:50:32.429Z,7.87
2023-03-30T02:53:03.410Z,9.77
2023-03-30T02:55:35.542Z,6.97
2023-03-30T02:58:08.065Z,6.20
2023-03-30T03:00:39.670Z,4.30
2023-03-30T03:03:11.095Z,5.23
2023-03-30T03:05:39.405Z,4.83
2023-03-30T03:08:07.705Z,3.43
2023-03-30T03:10:36.864Z,7.33
2023-03-30T03:13:08.220Z,6.60
2023-03-30T03:15:37.890Z,5.87
2023-03-30T03:18:06.294Z,4.30
2023-03-30T03:20:34.779Z,3.10
2023-03-30T03:23:02.952Z,4.73
2023-03-30T03:25:31.174Z,6.83
2023-03-30T03:27:59.377Z,6.33
2023-03-30T03:30:28.944Z,11.80
2023-03-30T03:32:57.208Z,7.43
2023-03-30T03:35:27.226Z,11.67
2023-03-30T03:37:55.459Z,7.53
2023-03-30T03:40:23.616Z,11.13
2023-03-30T03:42:51.868Z,9.43
2023-03-30T03:45:19.991Z,6.53
2023-03-30T03:47:51.873Z,9.90
2023-03-30T03:50:20.101Z,10.03
2023-03-30T03:52:48.268Z,7.50
2023-03-30T03:55:16.525Z,16.07
2023-03-30T03:57:45.748Z,9.53
2023-03-30T04:00:17.372Z,14.13
2023-03-30T04:02:46.100Z,9.60
2023-03-30T04:05:15.892Z,11.70
2023-03-30T04:07:46.262Z,11.23
2023-03-30T04:10:15.045Z,12.90
2023-03-30T04:12:43.214Z,14.33
2023-03-30T04:15:11.742Z,11.87
2023-03-30T04:17:40.147Z,15.13
2023-03-30T04:20:11.569Z,11.70
2023-03-30T04:22:42.612Z,12.13
2023-03-30T04:25:11.537Z,19.43
2023-03-30T04:27:42.695Z,12.70
2023-03-30T04:30:11.677Z,12.70
2023-03-30T04:32:41.370Z,18.33
2023-03-30T04:35:11.051Z,20.87
2023-03-30T04:37:42.006Z,17.73
2023-03-30T04:40:10.841Z,21.17
2023-03-30T04:42:39.102Z,15.10
2023-03-30T04:45:08.430Z,13.57
2023-03-30T04:47:36.884Z,17.77
2023-03-30T04:50:05.429Z,19.67
2023-03-30T04:52:33.578Z,19.60
2023-03-30T04:55:03.114Z,17.70
2023-03-30T04:57:31.795Z,16.30
2023-03-30T05:00:00.002Z,14.37
2023-03-30T05:02:28.245Z,12.97
2023-03-30T05:04:56.467Z,14.07
2023-03-30T05:07:24.631Z,15.87
2023-03-30T05:09:53.338Z,16.03
2023-03-30T05:12:22.973Z,17.70
2023-03-30T05:14:51.112Z,12.57
2023-03-30T05:17:19.327Z,12.70
2023-03-30T05:19:47.881Z,18.23
2023-03-30T05:22:17.004Z,15.53
2023-03-30T05:24:45.201Z,20.63
2023-03-30T05:27:14.573Z,19.20
2023-03-30T05:29:44.163Z,22.90
2023-03-30T05:32:12.535Z,21.43
2023-03-30T05:34:40.715Z,28.47
2023-03-30T05:37:08.932Z,24.77
2023-03-30T05:39:37.802Z,22.27
2023-03-30T05:42:07.357Z,21.23
2023-03-30T05:44:35.528Z,29.30
2023-03-30T05:47:05.096Z,25.57
2023-03-30T05:49:33.225Z,20.87
2023-03-30T05:52:01.527Z,16.50
2023-03-30T05:54:29.824Z,20.57
2023-03-30T05:56:58.233Z,24.37
2023-03-30T05:59:26.477Z,25.30
2023-03-30T06:01:56.080Z,16.93
2023-03-30T06:04:27.179Z,22.77
2023-03-30T06:06:55.764Z,26.97
2023-03-30T06:09:25.410Z,24.07
2023-03-30T06:11:53.621Z,18.83
2023-03-30T06:14:21.826Z,20.67
2023-03-30T06:16:50.094Z,18.43
2023-03-30T06:19:18.316Z,21.70
2023-03-30T06:21:47.849Z,18.80
2023-03-30T06:24:16.185Z,20.00
2023-03-30T06:26:44.369Z,18.73
2023-03-30T06:29:12.564Z,24.70
2023-03-30T06:31:41.122Z,27.73
2023-03-30T06:34:09.330Z,24.63
2023-03-30T06:36:45.044Z,26.40
2023-03-30T06:39:15.846Z,26.97
2023-03-30T06:41:44.073Z,24.53
2023-03-30T06:44:14.725Z,24.13
2023-03-30T06:46:43.381Z,21.10
2023-03-30T06:49:13.076Z,23.23
2023-03-30T06:51:41.890Z,23.87
2023-03-30T06:54:10.136Z,24.10
2023-03-30T06:56:40.040Z,23.37
2023-03-30T06:59:08.291Z,28.57
2023-03-30T07:01:37.120Z,22.10
2023-03-30T07:04:05.761Z,25.23
2023-03-30T07:06:34.748Z,24.27
2023-03-30T07:09:04.103Z,22.33
2023-03-30T07:11:32.302Z,19.03
2023-03-30T07:14:02.402Z,27.97
2023-03-30T07:16:30.737Z,23.83
2023-03-30T07:18:58.999Z,26.67
2023-03-30T07:21:27.208Z,27.70
2023-03-30T07:23:55.783Z,33.40
2023-03-30T07:26:23.949Z,31.50
2023-03-30T07:28:52.141Z,29.40
2023-03-30T07:31:21.934Z,29.47
2023-03-30T07:33:50.157Z,30.57
2023-03-30T07:36:18.804Z,24.97
2023-03-30T07:38:47.268Z,31.43
2023-03-30T07:41:17.979Z,31.20
2023-03-30T07:43:46.318Z,34.00
2023-03-30T07:46:14.707Z,34.70
2023-03-30T07:48:44.333Z,38.23
2023-03-30T07:51:13.574Z,29.60
2023-03-30T07:53:42.112Z,28.77
2023-03-30T07:56:10.520Z,30.07
2023-03-30T07:58:39.168Z,30.07
2023-03-30T08:01:08.291Z,37.47
2023-03-30T08:03:37.011Z,31.40
2023-03-30T08:06:06.765Z,34.30
2023-03-30T08:08:35.633Z,37.80
2023-03-30T08:11:03.895Z,28.37
2023-03-30T08:13:32.864Z,37.27
2023-03-30T08:16:01.309Z,25.33
2023-03-30T08:18:29.545Z,39.27
2023-03-30T08:20:57.694Z,40.87
2023-03-30T08:23:27.284Z,33.63
2023-03-30T08:25:57.980Z,22.40
2023-03-30T08:28:26.444Z,32.77
2023-03-30T08:30:55.394Z,34.00
2023-03-30T08:33:24.171Z,31.33
2023-03-30T08:35:52.465Z,33.83
2023-03-30T08:38:20.920Z,35.40
2023-03-30T08:40:51.368Z,34.60
2023-03-30T08:43:32.638Z,31.40
2023-03-30T08:46:01.048Z,26.00
2023-03-30T08:48:30.450Z,22.90
2023-03-30T08:50:59.824Z,31.90
2023-03-30T08:53:29.345Z,32.27
2023-03-30T08:56:01.795Z,30.30
2023-03-30T08:58:33.389Z,28.30
2023-03-30T09:01:04.614Z,23.50
2023-03-30T09:03:38.488Z,28.97
2023-03-30T09:06:09.993Z,25.00
2023-03-30T09:08:38.511Z,32.70
2023-03-30T09:11:12.535Z,32.80
2023-03-30T09:13:45.266Z,32.47
2023-03-30T09:16:16.493Z,35.40
2023-03-30T09:18:46.586Z,26.13
2023-03-30T09:21:15.157Z,32.40
2023-03-30T09:23:44.133Z,34.50
2023-03-30T09:26:17.389Z,24.33
2023-03-30T09:28:48.431Z,31.50
2023-03-30T09:31:21.697Z,32.73
2023-03-30T09:33:55.680Z,32.37
2023-03-30T09:36:28.017Z,33.50
2023-03-30T09:38:56.315Z,31.03
2023-03-30T09:41:35.308Z,32.07
2023-03-30T09:44:04.236Z,24.90
2023-03-30T09:46:40.466Z,31.17
2023-03-30T09:49:15.912Z,27.60
2023-03-30T09:51:57.892Z,31.50
2023-03-30T09:54:26.151Z,26.10
2023-03-30T09:56:57.267Z,24.40
2023-03-30T09:59:31.156Z,29.33
2023-03-30T10:02:12.375Z,30.60
2023-03-30T10:04:56.700Z,27.60
2023-03-30T10:07:26.440Z,24.13
2023-03-30T10:09:55.131Z,26.27
2023-03-30T10:12:26.157Z,30.47
2023-03-30T10:14:58.316Z,25.03
2023-03-30T10:17:27.374Z,28.03
2023-03-30T10:20:07.244Z,25.17
2023-03-30T10:22:49.978Z,29.60
2023-03-30T10:25:21.165Z,25.63
2023-03-30T10:27:53.519Z,26.70
2023-03-30T10:30:24.629Z,26.03
2023-03-30T10:32:53.135Z,16.20
2023-03-30T10:35:23.506Z,21.67
2023-03-30T10:37:52.480Z,29.40
2023-03-30T10:40:22.729Z,30.73
2023-03-30T10:42:55.446Z,28.83
2023-03-30T10:45:28.344Z,23.23
2023-03-30T10:48:07.267Z,26.50
2023-03-30T10:50:40.501Z,32.73
2023-03-30T10:53:15.994Z,33.23
2023-03-30T10:55:45.516Z,22.57
2023-03-30T10:58:22.079Z,29.23
2023-03-30T11:00:54.177Z,25.73
2023-03-30T11:03:24.196Z,24.03
2023-03-30T11:05:54.457Z,30.17
2023-03-30T11:08:24.777Z,26.43
2023-03-30T11:10:55.297Z,24.50
2023-03-30T11:13:26.042Z,26.73
2023-03-30T11:15:55.394Z,29.80
2023-03-30T11:18:25.769Z,31.13
2023-03-30T11:20:56.988Z,32.60
2023-03-30T11:23:28.647Z,24.60
2023-03-30T11:26:02.373Z,30.50
2023-03-30T11:28:38.478Z,30.30
2023-03-30T11:31:11.659Z,34.07
2023-03-30T11:33:45.628Z,26.10
2023-03-30T11:36:18.795Z,35.00
2023-03-30T11:38:50.758Z,28.80
2023-03-30T11:41:23.401Z,27.80
2023-03-30T11:43:55.997Z,31.00
2023-03-30T11:46:28.282Z,38.30
2023-03-30T11:49:11.534Z,27.60
2023-03-30T11:51:45.202Z,33.33
2023-03-30T11:54:26.111Z,28.07
2023-03-30T11:56:57.609Z,34.53
2023-03-30T11:59:29.948Z,30.00
2023-03-30T12:02:05.761Z,26.40
2023-03-30T12:04:38.753Z,39.43
2023-03-30T12:07:12.886Z,30.10
2023-03-30T12:09:45.911Z,34.50
2023-03-30T12:12:15.778Z,36.57
2023-03-30T12:14:54.741Z,28.80
2023-03-30T12:17:28.455Z,37.70
2023-03-30T12:19:59.594Z,45.60
2023-03-30T12:22:31.688Z,43.57
2023-03-30T12:25:02.845Z,64.63
2023-03-30T12:27:32.693Z,52.67
2023-03-30T12:30:14.257Z,58.07
2023-03-30T12:32:58.204Z,56.30
2023-03-30T12:35:44.869Z,41.53
2023-03-30T12:38:17.336Z,40.53
2023-03-30T12:40:47.442Z,56.13
2023-03-30T12:43:20.644Z,40.50
2023-03-30T12:46:02.553Z,41.03
2023-03-30T12:48:36.663Z,32.30
2023-03-30T12:51:12.804Z,48.57
2023-03-30T12:54:08.240Z,36.10
2023-03-30T12:56:39.283Z,48.20
2023-03-30T12:59:31.549Z,53.53
2023-03-30T13:02:07.605Z,31.23
2023-03-30T13:04:38.545Z,27.40
2023-03-30T13:07:08.394Z,38.90
2023-03-30T13:09:53.885Z,36.63
2023-03-30T13:12:37.886Z,21.03
2023-03-30T13:15:08.614Z,20.93
2023-03-30T13:17:51.955Z,33.10
2023-03-30T13:20:29.263Z,29.00
2023-03-30T13:23:06.778Z,28.37
2023-03-30T13:25:42.009Z,26.73
2023-03-30T13:28:28.056Z,29.10
2023-03-30T13:30:59.210Z,26.00
2023-03-30T13:33:29.113Z,36.67
2023-03-30T13:36:03.545Z,25.00
2023-03-30T13:39:00.987Z,33.57
2023-03-30T13:41:37.416Z,31.57
2023-03-30T13:44:19.562Z,28.90
2023-03-30T13:46:51.273Z,29.83
2023-03-30T13:49:26.642Z,29.80
2023-03-30T13:51:56.435Z,30.13
2023-03-30T13:54:27.434Z,30.70
2023-03-30T13:56:58.860Z,27.30
2023-03-30T13:59:30.150Z,26.20
2023-03-30T14:01:58.882Z,18.87
2023-03-30T14:04:32.062Z,24.13
2023-03-30T14:07:05.488Z,24.83
2023-03-30T14:09:33.769Z,36.87
2023-03-30T14:12:03.874Z,20.03
2023-03-30T14:14:35.586Z,29.47
2023-03-30T14:17:06.223Z,18.40
2023-03-30T14:19:36.785Z,23.87
2023-03-30T14:22:11.016Z,25.70
2023-03-30T14:24:39.313Z,25.03
2023-03-30T14:27:08.498Z,28.93
2023-03-30T14:29:45.150Z,35.70
2023-03-30T14:32:15.598Z,24.33
2023-03-30T14:34:48.668Z,25.80
2023-03-30T14:37:19.085Z,24.37
2023-03-30T14:39:50.112Z,21.30
2023-03-30T14:42:19.184Z,21.63
2023-03-30T14:44:48.336Z,25.53
2023-03-30T14:47:16.837Z,22.60
2023-03-30T14:49:47.459Z,20.33
2023-03-30T14:52:19.814Z,17.07
2023-03-30T14:55:04.257Z,21.17
2023-03-30T14:57:37.890Z,15.87
2023-03-30T15:00:21.078Z,18.13
2023-03-30T15:02:50.874Z,17.40
2023-03-30T15:05:19.375Z,24.27
2023-03-30T15:07:50.105Z,17.57
2023-03-30T15:10:25.591Z,20.60
2023-03-30T15:12:54.782Z,22.03
2023-03-30T15:15:25.747Z,18.60
2023-03-30T15:17:54.016Z,16.30
2023-03-30T15:20:22.281Z,23.17
2023-03-30T15:22:52.718Z,18.93
2023-03-30T15:25:22.309Z,19.80
2023-03-30T15:27:57.479Z,23.97
2023-03-30T15:30:29.609Z,25.50
2023-03-30T15:32:59.075Z,26.67
2023-03-30T15:35:28.953Z,21.90
2023-03-30T15:37:59.329Z,18.10
2023-03-30T15:40:29.352Z,27.33
2023-03-30T15:43:12.462Z,20.87
2023-03-30T15:45:40.893Z,22.30
2023-03-30T15:48:11.078Z,21.77
2023-03-30T15:50:39.324Z,24.13
2023-03-30T15:53:15.356Z,22.13
2023-03-30T15:55:45.762Z,21.87
2023-03-30T15:58:14.991Z,15.77
2023-03-30T16:00:43.271Z,11.27
2023-03-30T16:03:14.006Z,13.50
2023-03-30T16:05:43.730Z,18.83
2023-03-30T16:08:13.231Z,17.47
2023-03-30T16:10:41.433Z,20.13
2023-03-30T16:13:12.605Z,19.50
2023-03-30T16:15:40.884Z,17.13
2023-03-30T16:18:09.256Z,18.80
2023-03-30T16:20:37.491Z,18.37
2023-03-30T16:23:05.685Z,17.20
2023-03-30T16:25:44.862Z,18.30
2023-03-30T16:28:17.504Z,22.97
2023-03-30T16:30:46.828Z,14.50
2023-03-30T16:33:15.157Z,17.90
2023-03-30T16:35:43.446Z,16.40
2023-03-30T16:38:13.933Z,24.13
2023-03-30T16:40:44.586Z,19.70
2023-03-30T16:43:12.888Z,19.83
2023-03-30T16:45:41.140Z,16.77
2023-03-30T16:48:09.391Z,21.43
2023-03-30T16:50:38.782Z,18.43
2023-03-30T16:53:07.453Z,17.60
2023-03-30T16:55:35.631Z,15.83
2023-03-30T16:58:05.284Z,22.13
2023-03-30T17:00:34.841Z,17.80
2023-03-30T17:03:03.171Z,20.27
2023-03-30T17:05:32.023Z,12.90
2023-03-30T17:08:05.536Z,18.57
2023-03-30T17:10:35.035Z,18.03
2023-03-30T17:13:04.574Z,21.97
2023-03-30T17:15:35.385Z,18.07
2023-03-30T17:18:06.074Z,18.17
2023-03-30T17:20:36.417Z,16.70
2023-03-30T17:23:04.670Z,20.60
2023-03-30T17:25:32.973Z,19.93
2023-03-30T17:28:01.471Z,12.83
2023-03-30T17:30:31.762Z,19.17
2023-03-30T17:33:00.020Z,19.93
2023-03-30T17:35:28.736Z,16.50
2023-03-30T17:37:57.139Z,20.90
2023-03-30T17:40:27.024Z,13.57
2023-03-30T17:42:55.588Z,18.60
2023-03-30T17:45:24.962Z,19.00
2023-03-30T17:47:54.910Z,17.43
2023-03-30T17:50:24.976Z,13.97
2023-03-30T17:52:53.634Z,19.67
2023-03-30T17:55:22.322Z,28.67
2023-03-30T17:57:50.573Z,22.13
2023-03-30T18:00:23.731Z,20.70
2023-03-30T18:02:52.702Z,19.47
2023-03-30T18:05:23.195Z,18.27
2023-03-30T18:07:51.379Z,17.60
2023-03-30T18:10:24.764Z,16.67
2023-03-30T18:12:53.620Z,22.23
2023-03-30T18:15:25.323Z,24.20
2023-03-30T18:17:53.944Z,17.97
2023-03-30T18:20:29.160Z,21.13
2023-03-30T18:22:57.633Z,22.60
2023-03-30T18:25:32.677Z,27.97
2023-03-30T18:28:01.057Z,16.37
2023-03-30T18:30:30.379Z,18.33
2023-03-30T18:32:59.093Z,20.63
2023-03-30T18:35:29.874Z,18.03
2023-03-30T18:37:58.455Z,16.20
2023-03-30T18:40:27.695Z,21.07
2023-03-30T18:42:56.622Z,23.53
2023-03-30T18:45:26.785Z,20.90
2023-03-30T18:47:55.068Z,23.90
2023-03-30T18:50:24.995Z,20.00
2023-03-30T18:52:54.521Z,19.00
2023-03-30T18:55:22.693Z,24.30
2023-03-30T18:57:50.835Z,24.73
2023-03-30T19:00:21.331Z,21.63
2023-03-30T19:02:50.064Z,22.43
2023-03-30T19:05:19.443Z,23.43
2023-03-30T19:07:47.718Z,25.37
2023-03-30T19:10:18.213Z,20.93
2023-03-30T19:12:48.926Z,25.70
2023-03-30T19:15:21.598Z,27.47
2023-03-30T19:17:49.861Z,22.37
2023-03-30T19:20:18.597Z,25.80
2023-03-30T19:22:46.793Z,25.20
2023-03-30T19:25:15.540Z,23.33
2023-03-30T19:27:59.256Z,26.57
2023-03-30T19:30:32.340Z,24.43
2023-03-30T19:33:02.096Z,26.07
2023-03-30T19:35:30.582Z,24.50
2023-03-30T19:37:58.765Z,22.87
2023-03-30T19:40:27.039Z,24.37
2023-03-30T19:42:56.551Z,24.30
2023-03-30T19:45:24.733Z,27.20
2023-03-30T19:47:53.445Z,25.57
2023-03-30T19:50:24.855Z,23.40
2023-03-30T19:52:54.868Z,29.93
2023-03-30T19:55:23.372Z,33.47
2023-03-30T19:57:51.637Z,31.03
2023-03-30T20:00:21.446Z,29.23
2023-03-30T20:02:51.001Z,28.30
2023-03-30T20:05:20.683Z,30.20
2023-03-30T20:07:48.940Z,27.63
2023-03-30T20:10:18.825Z,28.33
2023-03-30T20:12:47.683Z,21.63
2023-03-30T20:15:16.319Z,27.10
2023-03-30T20:17:45.951Z,30.70
2023-03-30T20:20:16.830Z,27.10
2023-03-30T20:22:45.842Z,31.93
2023-03-30T20:25:15.496Z,22.57
2023-03-30T20:27:43.627Z,26.47
2023-03-30T20:30:12.648Z,25.13
2023-03-30T20:32:41.031Z,23.63
2023-03-30T20:35:10.849Z,29.33
2023-03-30T20:37:38.994Z,24.37
2023-03-30T20:40:09.747Z,27.40
2023-03-30T20:42:39.784Z,32.00
2023-03-30T20:45:08.929Z,30.20
2023-03-30T20:47:37.310Z,29.07
2023-03-30T20:50:06.150Z,29.47
2023-03-30T20:52:35.660Z,30.13
2023-03-30T20:55:03.842Z,27.20
2023-03-30T20:57:32.172Z,27.47
2023-03-30T21:00:01.194Z,34.17
2023-03-30T21:02:31.418Z,32.50
2023-03-30T21:04:59.776Z,25.67
2023-03-30T21:07:28.346Z,35.33
2023-03-30T21:09:57.913Z,22.07
2023-03-30T21:12:26.209Z,27.73
2023-03-30T21:14:54.512Z,24.30
2023-03-30T21:17:22.726Z,30.77
2023-03-30T21:19:50.953Z,28.80
2023-03-30T21:22:19.096Z,23.50
2023-03-30T21:24:47.228Z,25.17
2023-03-30T21:27:16.854Z,22.23
2023-03-30T21:29:45.021Z,31.50
2023-03-30T21:32:13.183Z,24.57
2023-03-30T21:34:42.749Z,24.50
2023-03-30T21:37:11.091Z,24.67
2023-03-30T21:39:39.344Z,25.40
2023-03-30T21:42:08.117Z,25.60
2023-03-30T21:44:38.022Z,21.30
2023-03-30T21:47:06.401Z,28.13
2023-03-30T21:49:37.082Z,22.77
2023-03-30T21:52:05.365Z,24.43
2023-03-30T21:54:33.513Z,25.77
2023-03-30T21:57:01.723Z,23.40
2023-03-30T21:59:29.986Z,26.67
2023-03-30T22:01:59.627Z,25.63
2023-03-30T22:04:27.809Z,19.87
2023-03-30T22:06:55.994Z,26.67
2023-03-30T22:09:24.154Z,26.57
2023-03-30T22:11:53.996Z,22.13
2023-03-30T22:14:22.316Z,23.17
2023-03-30T22:16:50.551Z,23.27
2023-03-30T22:19:22.748Z,23.37
2023-03-30T22:21:51.966Z,24.60
2023-03-30T22:24:20.711Z,21.80
2023-03-30T22:26:49.150Z,22.80
2023-03-30T22:29:20.697Z,21.80
2023-03-30T22:31:49.212Z,22.87
2023-03-30T22:34:17.460Z,22.13
2023-03-30T22:36:46.953Z,21.53
2023-03-30T22:39:16.614Z,22.43
2023-03-30T22:41:44.823Z,20.27
2023-03-30T22:44:13.124Z,22.33
2023-03-30T22:46:41.248Z,23.30
2023-03-30T22:49:09.613Z,18.37
2023-03-30T22:51:38.326Z,24.10
2023-03-30T22:54:07.978Z,19.27
2023-03-30T22:56:36.200Z,24.93
2023-03-30T22:59:04.393Z,21.10
2023-03-30T23:01:33.042Z,24.83
2023-03-30T23:04:01.799Z,21.97
2023-03-30T23:06:31.167Z,17.13
2023-03-30T23:09:01.490Z,19.77
2023-03-30T23:11:31.073Z,20.83
2023-03-30T23:14:05.395Z,18.90
2023-03-30T23:16:35.736Z,26.07
2023-03-30T23:19:04.235Z,23.33
2023-03-30T23:21:34.288Z,15.57
2023-03-30T23:24:03.205Z,22.37
2023-03-30T23:26:32.954Z,21.00
2023-03-30T23:29:01.233Z,19.53
2023-03-30T23:31:29.433Z,21.67
2023-03-30T23:51:22.235Z,12.37
2023-03-30T23:53:54.300Z,17.53
2023-03-30T23:56:25.778Z,10.97
2023-03-30T23:58:54.144Z,13.80
